Metar Aviation Weather Data LTBA Atatürk International

25°C Temp
13°C Dewpoint
47% Humidity
Temperature
21 KM/H
13 MPH
11 KTS
20°
North North
East

Wind Speed
Partly Cloudy
Conditions
Pressure 1015 (hPa) - 29.97 (in)
Visibility 6.2 (mi) - 10.0 (km)

Current Conditions
LTBA
Atatürk International 6 km (3.2 mi)
Metar :LTBA 310920Z 02011KT 9999 FEW037 25/13 Q1015 NOSIG RMK RWY17L 02014KT 340V060 RWY05 02013KT 340V060 RWY23 03013KT 360V060
Thu 31st May 06:20 am

Airport
  Metar Aviation API Data Provided by https://www.checkwx.com/ PHP scripts by weather34.com ©2018